sensor_id;sensor_type;location;lat;lon;timestamp;temperature;humidity
43884;DHT22;71973;52.018;5.810;2023-09-07T00:01:23;24.00;74.40
43884;DHT22;71973;52.018;5.810;2023-09-07T00:03:49;24.00;74.40
43884;DHT22;71973;52.018;5.810;2023-09-07T00:06:15;24.00;74.40
43884;DHT22;71973;52.018;5.810;2023-09-07T00:08:40;23.90;74.30
43884;DHT22;71973;52.018;5.810;2023-09-07T00:11:06;24.00;74.40
43884;DHT22;71973;52.018;5.810;2023-09-07T00:13:32;23.90;74.30
43884;DHT22;71973;52.018;5.810;2023-09-07T00:15:59;23.90;74.20
43884;DHT22;71973;52.018;5.810;2023-09-07T00:18:26;23.90;74.30
43884;DHT22;71973;52.018;5.810;2023-09-07T00:20:51;23.90;74.20
43884;DHT22;71973;52.018;5.810;2023-09-07T00:23:17;23.90;74.10
43884;DHT22;71973;52.018;5.810;2023-09-07T00:25:43;23.90;74.10
43884;DHT22;71973;52.018;5.810;2023-09-07T00:28:08;23.80;74.00
43884;DHT22;71973;52.018;5.810;2023-09-07T00:30:34;23.90;74.10
43884;DHT22;71973;52.018;5.810;2023-09-07T00:32:59;23.90;74.00
43884;DHT22;71973;52.018;5.810;2023-09-07T00:35:25;23.90;74.00
43884;DHT22;71973;52.018;5.810;2023-09-07T00:37:51;23.90;74.00
43884;DHT22;71973;52.018;5.810;2023-09-07T00:40:16;23.90;74.00
43884;DHT22;71973;52.018;5.810;2023-09-07T00:42:42;23.90;73.90
43884;DHT22;71973;52.018;5.810;2023-09-07T00:45:08;23.90;74.00
43884;DHT22;71973;52.018;5.810;2023-09-07T00:47:34;23.90;73.90
43884;DHT22;71973;52.018;5.810;2023-09-07T00:50:06;23.90;73.90
43884;DHT22;71973;52.018;5.810;2023-09-07T00:52:32;23.90;73.90
43884;DHT22;71973;52.018;5.810;2023-09-07T00:54:59;23.80;73.80
43884;DHT22;71973;52.018;5.810;2023-09-07T00:57:25;23.90;73.80
43884;DHT22;71973;52.018;5.810;2023-09-07T00:59:50;23.90;73.70
43884;DHT22;71973;52.018;5.810;2023-09-07T01:02:16;23.80;73.70
43884;DHT22;71973;52.018;5.810;2023-09-07T01:04:42;23.80;73.70
43884;DHT22;71973;52.018;5.810;2023-09-07T01:07:18;23.90;74.30
43884;DHT22;71973;52.018;5.810;2023-09-07T01:09:47;23.80;74.10
43884;DHT22;71973;52.018;5.810;2023-09-07T01:12:15;23.80;73.50
43884;DHT22;71973;52.018;5.810;2023-09-07T01:14:40;23.80;73.50
43884;DHT22;71973;52.018;5.810;2023-09-07T01:17:07;23.80;73.60
43884;DHT22;71973;52.018;5.810;2023-09-07T01:19:32;23.80;73.50
43884;DHT22;71973;52.018;5.810;2023-09-07T01:21:59;23.80;73.30
43884;DHT22;71973;52.018;5.810;2023-09-07T01:24:25;23.80;73.30
43884;DHT22;71973;52.018;5.810;2023-09-07T01:26:52;23.80;73.30
43884;DHT22;71973;52.018;5.810;2023-09-07T01:29:17;23.80;73.40
43884;DHT22;71973;52.018;5.810;2023-09-07T01:31:43;23.80;73.40
43884;DHT22;71973;52.018;5.810;2023-09-07T01:34:09;23.80;73.50
43884;DHT22;71973;52.018;5.810;2023-09-07T01:36:35;23.80;73.30
43884;DHT22;71973;52.018;5.810;2023-09-07T01:39:01;23.80;73.20
43884;DHT22;71973;52.018;5.810;2023-09-07T01:41:26;23.70;73.00
43884;DHT22;71973;52.018;5.810;2023-09-07T01:43:52;23.70;73.10
43884;DHT22;71973;52.018;5.810;2023-09-07T01:46:18;23.80;73.20
43884;DHT22;71973;52.018;5.810;2023-09-07T01:48:43;23.70;73.10
43884;DHT22;71973;52.018;5.810;2023-09-07T01:51:09;23.80;73.00
43884;DHT22;71973;52.018;5.810;2023-09-07T01:53:34;23.70;73.10
43884;DHT22;71973;52.018;5.810;2023-09-07T01:56:00;23.70;73.10
43884;DHT22;71973;52.018;5.810;2023-09-07T01:58:25;23.70;73.10
43884;DHT22;71973;52.018;5.810;2023-09-07T02:00:56;23.70;73.00
43884;DHT22;71973;52.018;5.810;2023-09-07T02:03:22;23.70;73.00
43884;DHT22;71973;52.018;5.810;2023-09-07T02:05:47;23.70;72.90
43884;DHT22;71973;52.018;5.810;2023-09-07T02:08:13;23.70;73.00
43884;DHT22;71973;52.018;5.810;2023-09-07T02:10:38;23.70;72.90
43884;DHT22;71973;52.018;5.810;2023-09-07T02:13:04;23.70;72.80
43884;DHT22;71973;52.018;5.810;2023-09-07T02:15:30;23.70;72.90
43884;DHT22;71973;52.018;5.810;2023-09-07T02:17:56;23.70;72.80
43884;DHT22;71973;52.018;5.810;2023-09-07T02:20:22;23.70;72.70
43884;DHT22;71973;52.018;5.810;2023-09-07T02:22:47;23.80;72.80
43884;DHT22;71973;52.018;5.810;2023-09-07T02:25:13;23.60;72.60
43884;DHT22;71973;52.018;5.810;2023-09-07T02:27:38;23.60;73.20
43884;DHT22;71973;52.018;5.810;2023-09-07T02:30:04;23.60;72.50
43884;DHT22;71973;52.018;5.810;2023-09-07T02:32:31;23.60;72.50
43884;DHT22;71973;52.018;5.810;2023-09-07T02:34:57;23.60;72.50
43884;DHT22;71973;52.018;5.810;2023-09-07T02:37:23;23.60;72.30
43884;DHT22;71973;52.018;5.810;2023-09-07T02:39:48;23.60;72.40
43884;DHT22;71973;52.018;5.810;2023-09-07T02:42:14;23.60;72.40
43884;DHT22;71973;52.018;5.810;2023-09-07T02:44:40;23.60;72.20
43884;DHT22;71973;52.018;5.810;2023-09-07T02:47:05;23.60;72.20
43884;DHT22;71973;52.018;5.810;2023-09-07T02:49:31;23.60;72.30
43884;DHT22;71973;52.018;5.810;2023-09-07T02:51:56;23.60;72.20
43884;DHT22;71973;52.018;5.810;2023-09-07T02:54:22;23.60;72.20
43884;DHT22;71973;52.018;5.810;2023-09-07T02:56:48;23.60;72.20
43884;DHT22;71973;52.018;5.810;2023-09-07T02:59:14;23.60;72.20
43884;DHT22;71973;52.018;5.810;2023-09-07T03:01:39;23.60;72.00
43884;DHT22;71973;52.018;5.810;2023-09-07T03:04:05;23.60;72.10
43884;DHT22;71973;52.018;5.810;2023-09-07T03:06:31;23.60;72.00
43884;DHT22;71973;52.018;5.810;2023-09-07T03:08:57;23.60;71.90
43884;DHT22;71973;52.018;5.810;2023-09-07T03:11:22;23.60;72.00
43884;DHT22;71973;52.018;5.810;2023-09-07T03:13:48;23.60;72.00
43884;DHT22;71973;52.018;5.810;2023-09-07T03:16:14;23.50;71.90
43884;DHT22;71973;52.018;5.810;2023-09-07T03:18:39;23.50;71.80
43884;DHT22;71973;52.018;5.810;2023-09-07T03:21:06;23.50;71.70
43884;DHT22;71973;52.018;5.810;2023-09-07T03:23:32;23.50;71.60
43884;DHT22;71973;52.018;5.810;2023-09-07T03:25:58;23.50;71.60
43884;DHT22;71973;52.018;5.810;2023-09-07T03:28:24;23.50;71.60
43884;DHT22;71973;52.018;5.810;2023-09-07T03:30:51;23.50;71.60
43884;DHT22;71973;52.018;5.810;2023-09-07T03:33:17;23.50;71.50
43884;DHT22;71973;52.018;5.810;2023-09-07T03:35:42;23.50;71.40
43884;DHT22;71973;52.018;5.810;2023-09-07T03:38:08;23.50;71.30
43884;DHT22;71973;52.018;5.810;2023-09-07T03:40:33;23.50;71.40
43884;DHT22;71973;52.018;5.810;2023-09-07T03:42:59;23.50;72.00
43884;DHT22;71973;52.018;5.810;2023-09-07T03:45:25;23.50;71.20
43884;DHT22;71973;52.018;5.810;2023-09-07T03:47:50;23.40;71.20
43884;DHT22;71973;52.018;5.810;2023-09-07T03:50:16;23.40;71.10
43884;DHT22;71973;52.018;5.810;2023-09-07T03:52:41;23.50;71.20
43884;DHT22;71973;52.018;5.810;2023-09-07T03:55:07;23.50;71.20
43884;DHT22;71973;52.018;5.810;2023-09-07T03:57:32;23.40;71.10
43884;DHT22;71973;52.018;5.810;2023-09-07T03:59:58;23.50;71.10
43884;DHT22;71973;52.018;5.810;2023-09-07T04:02:24;23.40;71.10
43884;DHT22;71973;52.018;5.810;2023-09-07T04:04:53;23.50;71.10
43884;DHT22;71973;52.018;5.810;2023-09-07T04:07:19;23.40;70.70
43884;DHT22;71973;52.018;5.810;2023-09-07T04:09:45;23.40;70.80
43884;DHT22;71973;52.018;5.810;2023-09-07T04:12:11;23.40;70.80
43884;DHT22;71973;52.018;5.810;2023-09-07T04:14:37;23.40;70.90
43884;DHT22;71973;52.018;5.810;2023-09-07T04:17:04;23.40;70.70
43884;DHT22;71973;52.018;5.810;2023-09-07T04:19:29;23.40;70.80
43884;DHT22;71973;52.018;5.810;2023-09-07T04:21:56;23.40;70.80
43884;DHT22;71973;52.018;5.810;2023-09-07T04:24:21;23.40;70.90
43884;DHT22;71973;52.018;5.810;2023-09-07T04:26:47;23.40;70.90
43884;DHT22;71973;52.018;5.810;2023-09-07T04:29:13;23.40;70.80
43884;DHT22;71973;52.018;5.810;2023-09-07T04:31:39;23.40;71.00
43884;DHT22;71973;52.018;5.810;2023-09-07T04:34:04;23.40;70.90
43884;DHT22;71973;52.018;5.810;2023-09-07T04:36:30;23.40;70.90
43884;DHT22;71973;52.018;5.810;2023-09-07T04:38:56;23.40;70.80
43884;DHT22;71973;52.018;5.810;2023-09-07T04:41:21;23.40;70.90
43884;DHT22;71973;52.018;5.810;2023-09-07T04:43:47;23.40;70.70
43884;DHT22;71973;52.018;5.810;2023-09-07T04:46:13;23.40;70.90
43884;DHT22;71973;52.018;5.810;2023-09-07T04:48:41;23.30;70.80
43884;DHT22;71973;52.018;5.810;2023-09-07T04:51:08;23.40;70.90
43884;DHT22;71973;52.018;5.810;2023-09-07T04:53:36;23.40;71.00
43884;DHT22;71973;52.018;5.810;2023-09-07T04:56:03;23.30;70.80
43884;DHT22;71973;52.018;5.810;2023-09-07T04:58:29;23.40;70.80
43884;DHT22;71973;52.018;5.810;2023-09-07T05:01:04;23.40;70.80
43884;DHT22;71973;52.018;5.810;2023-09-07T05:03:30;23.40;70.70
43884;DHT22;71973;52.018;5.810;2023-09-07T05:05:56;23.30;70.70
43884;DHT22;71973;52.018;5.810;2023-09-07T05:08:22;23.30;70.60
43884;DHT22;71973;52.018;5.810;2023-09-07T05:10:59;23.30;70.70
43884;DHT22;71973;52.018;5.810;2023-09-07T05:13:26;23.30;70.50
43884;DHT22;71973;52.018;5.810;2023-09-07T05:15:53;23.30;70.60
43884;DHT22;71973;52.018;5.810;2023-09-07T05:18:20;23.30;70.70
43884;DHT22;71973;52.018;5.810;2023-09-07T05:20:46;23.30;70.60
43884;DHT22;71973;52.018;5.810;2023-09-07T05:23:14;23.30;70.60
43884;DHT22;71973;52.018;5.810;2023-09-07T05:25:45;23.30;70.60
43884;DHT22;71973;52.018;5.810;2023-09-07T05:28:12;23.30;70.70
43884;DHT22;71973;52.018;5.810;2023-09-07T05:30:38;23.30;70.50
43884;DHT22;71973;52.018;5.810;2023-09-07T05:33:04;23.20;70.60
43884;DHT22;71973;52.018;5.810;2023-09-07T05:35:29;23.30;70.60
43884;DHT22;71973;52.018;5.810;2023-09-07T05:37:58;23.20;70.50
43884;DHT22;71973;52.018;5.810;2023-09-07T05:40:24;23.30;70.50
43884;DHT22;71973;52.018;5.810;2023-09-07T05:42:49;23.30;70.30
43884;DHT22;71973;52.018;5.810;2023-09-07T05:45:15;23.30;70.50
43884;DHT22;71973;52.018;5.810;2023-09-07T05:47:40;23.30;70.50
43884;DHT22;71973;52.018;5.810;2023-09-07T05:50:06;23.20;70.40
43884;DHT22;71973;52.018;5.810;2023-09-07T05:52:32;23.20;70.40
43884;DHT22;71973;52.018;5.810;2023-09-07T05:54:57;23.20;70.50
43884;DHT22;71973;52.018;5.810;2023-09-07T05:57:23;23.20;70.50
43884;DHT22;71973;52.018;5.810;2023-09-07T05:59:48;23.20;70.50
43884;DHT22;71973;52.018;5.810;2023-09-07T06:02:14;23.20;70.50
43884;DHT22;71973;52.018;5.810;2023-09-07T06:04:39;23.30;70.50
43884;DHT22;71973;52.018;5.810;2023-09-07T06:07:05;23.20;70.40
43884;DHT22;71973;52.018;5.810;2023-09-07T06:09:30;23.30;70.50
43884;DHT22;71973;52.018;5.810;2023-09-07T06:11:56;23.20;70.40
43884;DHT22;71973;52.018;5.810;2023-09-07T06:14:21;23.20;70.50
43884;DHT22;71973;52.018;5.810;2023-09-07T06:16:47;23.20;70.60
43884;DHT22;71973;52.018;5.810;2023-09-07T06:19:12;23.20;70.60
43884;DHT22;71973;52.018;5.810;2023-09-07T06:21:38;23.20;71.20
43884;DHT22;71973;52.018;5.810;2023-09-07T06:24:04;23.20;70.40
43884;DHT22;71973;52.018;5.810;2023-09-07T06:26:31;23.20;70.70
43884;DHT22;71973;52.018;5.810;2023-09-07T06:28:57;23.20;70.50
43884;DHT22;71973;52.018;5.810;2023-09-07T06:31:22;23.20;70.60
43884;DHT22;71973;52.018;5.810;2023-09-07T06:33:48;23.20;70.60
43884;DHT22;71973;52.018;5.810;2023-09-07T06:36:13;23.20;70.60
43884;DHT22;71973;52.018;5.810;2023-09-07T06:38:39;23.20;70.70
43884;DHT22;71973;52.018;5.810;2023-09-07T06:41:05;23.20;70.80
43884;DHT22;71973;52.018;5.810;2023-09-07T06:43:33;23.20;70.90
43884;DHT22;71973;52.018;5.810;2023-09-07T06:46:16;23.20;70.80
43884;DHT22;71973;52.018;5.810;2023-09-07T06:48:42;23.20;70.90
43884;DHT22;71973;52.018;5.810;2023-09-07T06:51:07;23.10;70.80
43884;DHT22;71973;52.018;5.810;2023-09-07T06:53:35;23.10;70.80
43884;DHT22;71973;52.018;5.810;2023-09-07T06:56:02;23.10;71.00
43884;DHT22;71973;52.018;5.810;2023-09-07T06:58:27;23.10;71.10
43884;DHT22;71973;52.018;5.810;2023-09-07T07:00:57;23.10;71.10
43884;DHT22;71973;52.018;5.810;2023-09-07T07:03:28;23.10;71.20
43884;DHT22;71973;52.018;5.810;2023-09-07T07:05:54;23.10;71.20
43884;DHT22;71973;52.018;5.810;2023-09-07T07:08:20;23.10;71.50
43884;DHT22;71973;52.018;5.810;2023-09-07T07:10:45;23.10;71.50
43884;DHT22;71973;52.018;5.810;2023-09-07T07:13:11;23.10;71.30
43884;DHT22;71973;52.018;5.810;2023-09-07T07:15:36;23.20;71.40
43884;DHT22;71973;52.018;5.810;2023-09-07T07:18:02;23.20;71.60
43884;DHT22;71973;52.018;5.810;2023-09-07T07:20:37;23.10;71.50
43884;DHT22;71973;52.018;5.810;2023-09-07T07:23:03;23.10;71.40
43884;DHT22;71973;52.018;5.810;2023-09-07T07:25:28;23.10;71.50
43884;DHT22;71973;52.018;5.810;2023-09-07T07:27:56;23.20;71.70
43884;DHT22;71973;52.018;5.810;2023-09-07T07:30:22;23.10;71.50
43884;DHT22;71973;52.018;5.810;2023-09-07T07:32:47;23.10;71.40
43884;DHT22;71973;52.018;5.810;2023-09-07T07:35:13;23.10;71.50
43884;DHT22;71973;52.018;5.810;2023-09-07T07:37:39;23.10;71.50
43884;DHT22;71973;52.018;5.810;2023-09-07T07:40:05;23.10;71.50
43884;DHT22;71973;52.018;5.810;2023-09-07T07:42:31;23.10;71.30
43884;DHT22;71973;52.018;5.810;2023-09-07T07:44:57;23.20;71.40
43884;DHT22;71973;52.018;5.810;2023-09-07T07:47:23;23.10;71.20
43884;DHT22;71973;52.018;5.810;2023-09-07T07:49:48;23.10;71.10
43884;DHT22;71973;52.018;5.810;2023-09-07T07:52:14;23.10;71.20
43884;DHT22;71973;52.018;5.810;2023-09-07T07:54:39;23.10;71.10
43884;DHT22;71973;52.018;5.810;2023-09-07T07:57:05;23.10;71.20
43884;DHT22;71973;52.018;5.810;2023-09-07T07:59:30;23.10;71.20
43884;DHT22;71973;52.018;5.810;2023-09-07T08:01:56;23.10;71.10
43884;DHT22;71973;52.018;5.810;2023-09-07T08:04:21;23.10;71.10
43884;DHT22;71973;52.018;5.810;2023-09-07T08:06:47;23.10;71.20
43884;DHT22;71973;52.018;5.810;2023-09-07T08:09:12;23.10;71.10
43884;DHT22;71973;52.018;5.810;2023-09-07T08:11:39;23.10;71.00
43884;DHT22;71973;52.018;5.810;2023-09-07T08:14:05;23.10;70.90
43884;DHT22;71973;52.018;5.810;2023-09-07T08:16:30;23.10;71.60
43884;DHT22;71973;52.018;5.810;2023-09-07T08:18:56;23.10;71.00
43884;DHT22;71973;52.018;5.810;2023-09-07T08:21:21;23.10;71.10
43884;DHT22;71973;52.018;5.810;2023-09-07T08:23:47;23.10;71.00
43884;DHT22;71973;52.018;5.810;2023-09-07T08:26:12;23.10;71.00
43884;DHT22;71973;52.018;5.810;2023-09-07T08:28:40;23.20;71.10
43884;DHT22;71973;52.018;5.810;2023-09-07T08:31:05;23.20;71.10
43884;DHT22;71973;52.018;5.810;2023-09-07T08:33:32;23.20;71.10
43884;DHT22;71973;52.018;5.810;2023-09-07T08:36:00;23.20;71.20
43884;DHT22;71973;52.018;5.810;2023-09-07T08:38:26;23.10;71.20
43884;DHT22;71973;52.018;5.810;2023-09-07T08:40:53;23.20;71.20
43884;DHT22;71973;52.018;5.810;2023-09-07T08:43:20;23.20;71.20
43884;DHT22;71973;52.018;5.810;2023-09-07T08:45:51;23.20;71.20
43884;DHT22;71973;52.018;5.810;2023-09-07T08:48:18;23.20;71.20
43884;DHT22;71973;52.018;5.810;2023-09-07T08:50:45;23.20;70.80
43884;DHT22;71973;52.018;5.810;2023-09-07T08:53:17;23.20;71.20
43884;DHT22;71973;52.018;5.810;2023-09-07T08:55:43;23.20;71.20
43884;DHT22;71973;52.018;5.810;2023-09-07T08:58:09;23.20;71.20
43884;DHT22;71973;52.018;5.810;2023-09-07T09:00:35;23.20;71.20
43884;DHT22;71973;52.018;5.810;2023-09-07T09:03:01;23.20;71.20
43884;DHT22;71973;52.018;5.810;2023-09-07T09:05:28;23.20;71.10
43884;DHT22;71973;52.018;5.810;2023-09-07T09:08:02;23.30;71.00
43884;DHT22;71973;52.018;5.810;2023-09-07T09:10:29;23.20;70.70
43884;DHT22;71973;52.018;5.810;2023-09-07T09:12:55;23.30;70.10
43884;DHT22;71973;52.018;5.810;2023-09-07T09:15:22;23.30;70.10
43884;DHT22;71973;52.018;5.810;2023-09-07T09:17:48;23.20;70.20
43884;DHT22;71973;52.018;5.810;2023-09-07T09:20:21;23.30;70.10
43884;DHT22;71973;52.018;5.810;2023-09-07T09:22:49;23.30;70.00
43884;DHT22;71973;52.018;5.810;2023-09-07T09:25:15;23.30;70.00
43884;DHT22;71973;52.018;5.810;2023-09-07T09:27:41;23.30;69.90
43884;DHT22;71973;52.018;5.810;2023-09-07T09:30:07;23.30;69.90
43884;DHT22;71973;52.018;5.810;2023-09-07T09:32:32;23.40;69.60
43884;DHT22;71973;52.018;5.810;2023-09-07T09:34:59;23.30;69.80
43884;DHT22;71973;52.018;5.810;2023-09-07T09:37:28;23.40;69.60
43884;DHT22;71973;52.018;5.810;2023-09-07T09:39:54;23.40;69.80
43884;DHT22;71973;52.018;5.810;2023-09-07T09:42:21;23.40;70.00
43884;DHT22;71973;52.018;5.810;2023-09-07T09:44:49;23.40;70.10
43884;DHT22;71973;52.018;5.810;2023-09-07T09:47:16;23.40;70.40
43884;DHT22;71973;52.018;5.810;2023-09-07T09:49:42;23.40;70.40
43884;DHT22;71973;52.018;5.810;2023-09-07T09:52:08;23.40;70.50
43884;DHT22;71973;52.018;5.810;2023-09-07T09:54:35;23.40;70.60
43884;DHT22;71973;52.018;5.810;2023-09-07T09:57:01;23.30;70.50
43884;DHT22;71973;52.018;5.810;2023-09-07T09:59:27;23.40;70.70
43884;DHT22;71973;52.018;5.810;2023-09-07T10:01:53;23.40;70.70
43884;DHT22;71973;52.018;5.810;2023-09-07T10:04:20;23.40;70.70
43884;DHT22;71973;52.018;5.810;2023-09-07T10:06:55;23.40;70.80
43884;DHT22;71973;52.018;5.810;2023-09-07T10:09:23;23.50;71.50
43884;DHT22;71973;52.018;5.810;2023-09-07T10:11:53;23.60;71.60
43884;DHT22;71973;52.018;5.810;2023-09-07T10:14:19;23.60;72.20
43884;DHT22;71973;52.018;5.810;2023-09-07T10:16:52;23.60;72.20
43884;DHT22;71973;52.018;5.810;2023-09-07T10:19:19;23.60;72.30
43884;DHT22;71973;52.018;5.810;2023-09-07T10:21:45;23.60;72.00
43884;DHT22;71973;52.018;5.810;2023-09-07T10:24:11;23.60;71.90
43884;DHT22;71973;52.018;5.810;2023-09-07T10:26:36;23.70;72.10
43884;DHT22;71973;52.018;5.810;2023-09-07T10:29:02;23.70;72.00
43884;DHT22;71973;52.018;5.810;2023-09-07T10:31:29;23.70;72.00
43884;DHT22;71973;52.018;5.810;2023-09-07T10:33:56;23.70;72.00
43884;DHT22;71973;52.018;5.810;2023-09-07T10:36:23;23.70;72.00
43884;DHT22;71973;52.018;5.810;2023-09-07T10:38:49;23.80;72.00
43884;DHT22;71973;52.018;5.810;2023-09-07T10:41:18;23.80;72.00
43884;DHT22;71973;52.018;5.810;2023-09-07T10:43:48;23.80;72.00
43884;DHT22;71973;52.018;5.810;2023-09-07T10:46:14;23.80;72.10
43884;DHT22;71973;52.018;5.810;2023-09-07T10:48:40;23.80;72.00
43884;DHT22;71973;52.018;5.810;2023-09-07T10:51:06;23.90;72.10
43884;DHT22;71973;52.018;5.810;2023-09-07T10:53:32;23.80;72.10
43884;DHT22;71973;52.018;5.810;2023-09-07T10:56:05;23.80;72.10
43884;DHT22;71973;52.018;5.810;2023-09-07T10:58:35;23.90;72.20
43884;DHT22;71973;52.018;5.810;2023-09-07T11:01:01;23.80;72.30
43884;DHT22;71973;52.018;5.810;2023-09-07T11:03:29;23.80;72.40
43884;DHT22;71973;52.018;5.810;2023-09-07T11:06:01;23.90;72.50
43884;DHT22;71973;52.018;5.810;2023-09-07T11:08:31;23.90;72.10
43884;DHT22;71973;52.018;5.810;2023-09-07T11:10:59;23.90;72.50
43884;DHT22;71973;52.018;5.810;2023-09-07T11:13:24;23.90;72.60
43884;DHT22;71973;52.018;5.810;2023-09-07T11:15:53;23.90;72.60
43884;DHT22;71973;52.018;5.810;2023-09-07T11:18:21;23.90;72.50
43884;DHT22;71973;52.018;5.810;2023-09-07T11:20:48;23.90;72.50
43884;DHT22;71973;52.018;5.810;2023-09-07T11:23:13;23.90;72.60
43884;DHT22;71973;52.018;5.810;2023-09-07T11:25:39;23.90;73.20
43884;DHT22;71973;52.018;5.810;2023-09-07T11:28:06;24.00;73.30
43884;DHT22;71973;52.018;5.810;2023-09-07T11:30:34;24.00;72.70
43884;DHT22;71973;52.018;5.810;2023-09-07T11:33:04;24.00;72.60
43884;DHT22;71973;52.018;5.810;2023-09-07T11:35:30;24.00;72.60
43884;DHT22;71973;52.018;5.810;2023-09-07T11:37:56;24.00;72.50
43884;DHT22;71973;52.018;5.810;2023-09-07T11:40:21;24.10;72.50
43884;DHT22;71973;52.018;5.810;2023-09-07T11:42:47;24.10;72.50
43884;DHT22;71973;52.018;5.810;2023-09-07T11:45:13;24.10;72.40
43884;DHT22;71973;52.018;5.810;2023-09-07T11:47:39;24.10;72.40
43884;DHT22;71973;52.018;5.810;2023-09-07T11:50:05;24.10;72.20
43884;DHT22;71973;52.018;5.810;2023-09-07T11:52:32;24.20;72.30
43884;DHT22;71973;52.018;5.810;2023-09-07T11:54:57;24.10;72.20
43884;DHT22;71973;52.018;5.810;2023-09-07T11:57:23;24.20;72.20
